Time;durP1;ratioP1;P1;durP2;ratioP2;P2;SDS_P1;SDS_P2;PMS_P1;PMS_P2;Temp;Humidity;BMP_temperature;BMP_pressure;BME280_temperature;BME280_humidity;BME280_pressure;Samples;Min_cycle;Max_cycle;Signal;HPM_P1;HPM_P2
2020/12/03 00:00:29;;;;;;;;;;;12.50;99.90;;;11.95;83.91;100604.81;5012782;28;19932;-63
2020/12/03 00:02:57;;;;;;;;;;;12.50;99.90;;;11.94;83.96;100595.09;5012820;28;19973;-64
2020/12/03 00:05:25;;;;;;;;;;;12.40;99.90;;;11.94;84.04;100594.28;5013072;28;20375;-64
2020/12/03 00:07:54;;;;;;;;;;;12.40;99.90;;;11.91;83.97;100592.19;5013211;28;19964;-64
2020/12/03 00:10:22;;;;;;;;;;;12.40;99.90;;;11.87;84.16;100600.13;5012662;28;20345;-63
2020/12/03 00:13:02;;;;;;;;;;;12.40;99.90;;;11.77;84.56;100605.75;5012774;28;19969;-64
2020/12/03 00:15:29;;;;;;;;;;;12.30;99.90;;;11.76;84.83;100601.44;5012877;28;19969;-63
2020/12/03 00:17:57;;;;;;;;;;;12.30;99.90;;;11.77;85.30;100600.31;5013179;28;19952;-64
2020/12/03 00:20:24;;;;;;;;;;;12.30;99.90;;;11.78;85.45;100601.94;5030293;28;19994;-64
2020/12/03 00:22:51;;;;;;;;;;;12.30;99.90;;;11.89;85.32;100600.59;5032297;28;19969;-65
2020/12/03 00:25:19;;;;;;;;;;;12.30;99.90;;;11.95;85.03;100602.09;5032561;28;20378;-64
2020/12/03 00:27:51;;;;;;;;;;;12.40;99.90;;;11.95;85.05;100590.47;5032682;28;20349;-64
2020/12/03 00:30:18;;;;;;;;;;;12.40;99.90;;;11.95;85.47;100599.38;5032072;28;19925;-63
2020/12/03 00:32:46;;;;;;;;;;;12.40;99.90;;;11.89;86.00;100600.59;5032145;28;20275;-64
2020/12/03 00:35:13;;;;;;;;;;;12.40;99.90;;;11.86;86.88;100598.50;5032380;28;19929;-63
2020/12/03 00:37:42;;;;;;;;;;;12.30;99.90;;;11.75;87.30;100602.53;5031819;28;20317;-64
2020/12/03 00:40:09;;;;;;;;;;;12.30;99.90;;;11.69;87.71;100595.59;5032003;28;19925;-63
2020/12/03 00:42:36;;;;;;;;;;;12.20;99.90;;;11.64;88.39;100593.00;5032215;28;19925;-63
2020/12/03 00:45:06;;;;;;;;;;;12.10;99.90;;;11.63;88.39;100593.28;5031918;28;19972;-64
2020/12/03 00:47:33;;;;;;;;;;;12.10;99.90;;;11.52;89.48;100587.25;5032474;28;19925;-64
2020/12/03 00:50:00;;;;;;;;;;;12.00;99.90;;;11.47;90.11;100582.75;5031894;28;19925;-64
2020/12/03 00:52:28;;;;;;;;;;;12.00;99.90;;;11.43;89.94;100583.66;5031985;28;19976;-64
2020/12/03 00:54:55;;;;;;;;;;;11.90;99.90;;;11.38;90.63;100579.16;5032117;28;19960;-64
2020/12/03 00:57:22;;;;;;;;;;;;;;;11.41;90.87;100575.03;5032408;28;19971;-63
2020/12/03 00:59:49;;;;;;;;;;;11.90;99.90;;;11.40;91.05;100559.88;5031979;28;19925;-63
2020/12/03 01:02:17;;;;;;;;;;;11.90;99.90;;;11.38;91.17;100568.31;5031507;28;20048;-66
2020/12/03 01:04:44;;;;;;;;;;;11.90;99.90;;;11.38;91.00;100562.91;5031745;28;19968;-63
2020/12/03 01:07:12;;;;;;;;;;;11.90;99.90;;;11.39;90.56;100559.09;5032456;28;19929;-64
2020/12/03 01:09:42;;;;;;;;;;;11.80;99.90;;;11.32;90.41;100558.69;5032188;28;20010;-64
2020/12/03 01:12:10;;;;;;;;;;;11.80;99.90;;;11.30;90.48;100560.91;5031070;28;19929;-63
2020/12/03 01:14:37;;;;;;;;;;;11.80;99.90;;;11.31;90.34;100557.06;5031669;28;20627;-63
2020/12/03 01:17:07;;;;;;;;;;;11.80;99.90;;;11.30;90.14;100552.78;5032274;28;19929;-63
2020/12/03 01:19:35;;;;;;;;;;;11.80;99.90;;;11.35;90.25;100551.88;5034020;28;20451;-63
2020/12/03 01:22:02;;;;;;;;;;;11.80;99.90;;;11.48;90.10;100559.19;5035232;28;19928;-64
2020/12/03 01:24:29;;;;;;;;;;;11.90;99.90;;;11.51;89.67;100551.28;5035711;28;19925;-64
2020/12/03 01:26:57;;;;;;;;;;;11.90;99.90;;;11.51;89.36;100550.47;5036193;28;19925;-64
2020/12/03 01:29:24;;;;;;;;;;;12.00;99.90;;;11.50;89.16;100551.56;5035921;28;19948;-63
2020/12/03 01:31:52;;;;;;;;;;;11.90;99.90;;;11.47;88.84;100542.16;5034991;28;20297;-64
2020/12/03 01:34:20;;;;;;;;;;;11.90;99.90;;;11.48;88.44;100543.75;5035398;28;20015;-64
2020/12/03 01:36:51;;;;;;;;;;;11.90;99.90;;;11.47;87.61;100534.03;5036027;28;20374;-64
2020/12/03 01:39:18;;;;;;;;;;;11.90;99.90;;;11.41;87.13;100534.41;5036109;28;19925;-64
2020/12/03 01:41:46;;;;;;;;;;;11.80;99.90;;;11.38;87.25;100527.72;5034796;28;19956;-64
2020/12/03 01:44:14;;;;;;;;;;;11.80;99.90;;;11.37;86.95;100536.94;5035181;28;19960;-63
2020/12/03 01:46:42;;;;;;;;;;;11.80;99.90;;;11.40;86.86;100530.09;5035613;28;19929;-64
2020/12/03 01:49:15;;;;;;;;;;;11.80;99.90;;;11.41;85.71;100526.31;5035973;28;19956;-64
2020/12/03 01:51:46;;;;;;;;;;;11.80;99.90;;;11.40;85.13;100520.06;5034803;28;19929;-66
2020/12/03 01:54:16;;;;;;;;;;;11.80;99.90;;;11.40;84.88;100524.69;5035257;28;19967;-65
2020/12/03 01:56:53;;;;;;;;;;;11.80;99.90;;;11.48;83.77;100526.69;5035578;28;19925;-64
2020/12/03 01:59:21;;;;;;;;;;;11.90;99.90;;;11.60;82.96;100527.00;5035546;28;19956;-64
2020/12/03 02:01:49;;;;;;;;;;;12.00;99.90;;;11.62;82.36;100529.38;5034355;28;19972;-64
2020/12/03 02:04:16;;;;;;;;;;;12.00;99.90;;;11.71;81.51;100536.53;5034908;28;19979;-64
2020/12/03 02:06:44;;;;;;;;;;;12.10;99.90;;;11.76;81.08;100533.72;5020947;28;20322;-64
2020/12/03 02:09:14;;;;;;;;;;;12.20;99.90;;;11.86;80.58;100538.91;5015594;28;19960;-64
2020/12/03 02:11:41;;;;;;;;;;;12.20;99.90;;;11.89;80.34;100538.28;5014632;28;19929;-63
2020/12/03 02:14:09;;;;;;;;;;;12.30;99.90;;;11.93;79.70;100522.22;5014850;28;20379;-64
2020/12/03 02:16:38;;;;;;;;;;;12.40;99.90;;;11.98;79.61;100519.38;5015459;28;20417;-64
2020/12/03 02:19:16;;;;;;;;;;;12.40;99.90;;;11.96;79.50;100519.72;5015435;28;20383;-64
2020/12/03 02:21:44;;;;;;;;;;;12.40;99.90;;;11.94;79.63;100521.94;5014384;28;19965;-64
2020/12/03 02:24:12;;;;;;;;;;;12.40;99.90;;;11.99;79.26;100510.97;5014730;28;19925;-64
2020/12/03 02:26:48;;;;;;;;;;;12.40;99.90;;;11.99;78.78;100507.44;5015400;28;19992;-64
2020/12/03 02:29:18;;;;;;;;;;;12.40;99.90;;;11.98;78.54;100513.97;5015382;28;19992;-64
2020/12/03 02:31:45;;;;;;;;;;;12.40;99.90;;;12.01;78.38;100519.59;5013935;28;20345;-63
2020/12/03 02:34:12;;;;;;;;;;;12.40;99.90;;;12.07;77.69;100515.66;5014359;28;19979;-64
2020/12/03 02:36:39;;;;;;;;;;;12.50;99.90;;;12.09;77.11;100523.50;5015147;28;20365;-64
2020/12/03 02:39:07;;;;;;;;;;;12.50;99.90;;;12.14;77.04;100527.97;5015105;28;19929;-64
2020/12/03 02:41:35;;;;;;;;;;;12.50;99.90;;;12.11;76.71;100528.59;5014121;28;19979;-64
2020/12/03 02:44:02;;;;;;;;;;;12.50;99.90;;;12.09;77.24;100536.22;5014222;28;20020;-64
2020/12/03 02:46:29;;;;;;;;;;;12.50;99.90;;;12.04;77.21;100524.41;5014856;28;19929;-64
2020/12/03 02:48:56;;;;;;;;;;;12.50;99.90;;;11.96;77.88;100524.31;5014897;28;20377;-64
2020/12/03 02:51:23;;;;;;;;;;;12.40;99.90;;;11.91;78.26;100522.53;5013895;28;19976;-64
2020/12/03 02:53:50;;;;;;;;;;;12.40;99.90;;;11.88;78.37;100512.31;5014074;28;19929;-64
2020/12/03 02:56:19;;;;;;;;;;;12.40;99.90;;;11.92;78.14;100516.00;5014635;28;20345;-64
2020/12/03 02:58:46;;;;;;;;;;;12.30;99.90;;;12.01;77.34;100508.75;5022881;28;19932;-64
2020/12/03 03:01:13;;;;;;;;;;;12.40;99.90;;;11.98;77.53;100506.66;5033562;28;19929;-64
2020/12/03 03:03:40;;;;;;;;;;;12.40;99.90;;;11.97;77.59;100494.22;5033679;28;19977;-64
2020/12/03 03:06:07;;;;;;;;;;;12.40;99.90;;;11.89;77.87;100503.06;5034310;28;19925;-64
2020/12/03 03:08:34;;;;;;;;;;;12.30;99.90;;;11.84;77.87;100500.47;5034208;28;19929;-64
2020/12/03 03:11:01;;;;;;;;;;;12.30;99.90;;;11.91;77.80;100503.56;5033339;28;19941;-64
2020/12/03 03:13:29;;;;;;;;;;;12.30;99.90;;;11.90;77.85;100506.56;5033853;28;19925;-64
2020/12/03 03:15:57;;;;;;;;;;;12.30;99.90;;;11.90;77.58;100503.88;5033770;28;19995;-64
2020/12/03 03:18:24;;;;;;;;;;;12.30;99.90;;;11.91;77.54;100498.16;5033952;28;19932;-64
2020/12/03 03:20:51;;;;;;;;;;;12.30;99.90;;;11.87;77.64;100504.47;5033372;28;19979;-64
2020/12/03 03:23:18;;;;;;;;;;;12.30;99.90;;;11.82;78.04;100505.41;5033451;28;19979;-64
2020/12/03 03:25:45;;;;;;;;;;;12.30;99.90;;;11.80;78.01;100513.03;5033450;28;20544;-64
2020/12/03 03:28:13;;;;;;;;;;;12.20;99.90;;;11.73;78.58;100504.53;5034093;28;19961;-63
2020/12/03 03:30:41;;;;;;;;;;;12.20;99.90;;;11.68;78.77;100510.00;5032889;28;19956;-64
2020/12/03 03:33:08;;;;;;;;;;;12.20;99.90;;;11.74;78.72;100514.25;5033071;28;20026;-64
2020/12/03 03:35:35;;;;;;;;;;;12.20;99.90;;;11.74;78.43;100508.81;5033255;28;20429;-64
2020/12/03 03:38:02;;;;;;;;;;;12.20;99.90;;;11.79;78.18;100503.31;5033486;28;19964;-64
2020/12/03 03:40:30;;;;;;;;;;;12.20;99.90;;;11.83;78.11;100503.47;5032789;28;19979;-64
2020/12/03 03:42:57;;;;;;;;;;;12.20;99.90;;;11.88;77.70;100501.47;5032426;28;19925;-64
2020/12/03 03:45:24;;;;;;;;;;;12.30;99.90;;;11.82;77.91;100508.13;5033097;28;19972;-64
2020/12/03 03:47:52;;;;;;;;;;;12.20;99.90;;;11.79;78.41;100511.44;5033479;28;20275;-64
2020/12/03 03:50:19;;;;;;;;;;;12.20;99.90;;;11.79;78.36;100518.75;5032681;28;20148;-64
2020/12/03 03:52:46;;;;;;;;;;;12.20;99.90;;;11.69;78.72;100522.47;5032267;28;19925;-64
2020/12/03 03:55:15;;;;;;;;;;;12.20;99.90;;;11.66;79.21;100522.25;5033222;28;19926;-64
2020/12/03 03:57:42;;;;;;;;;;;12.10;99.90;;;11.59;79.29;100524.56;5033308;28;20368;-63
2020/12/03 04:00:09;;;;;;;;;;;12.10;99.90;;;11.55;79.36;100512.75;5032740;28;19979;-65
2020/12/03 04:02:37;;;;;;;;;;;12.00;99.90;;;11.47;79.47;100512.34;5032398;28;19964;-63
2020/12/03 04:05:05;;;;;;;;;;;11.90;99.90;;;11.44;79.84;100504.84;5032615;28;19932;-64
2020/12/03 04:07:32;;;;;;;;;;;11.90;99.90;;;11.45;79.50;100505.66;5033129;28;19929;-63
2020/12/03 04:09:59;;;;;;;;;;;11.90;99.90;;;11.51;79.15;100512.56;5032472;28;19933;-63
2020/12/03 04:12:26;;;;;;;;;;;11.90;99.90;;;11.51;79.25;100501.72;5032523;28;20236;-63
2020/12/03 04:14:53;;;;;;;;;;;11.90;99.90;;;11.48;79.11;100503.16;5032528;28;19937;-63
2020/12/03 04:17:20;;;;;;;;;;;11.90;99.90;;;11.41;79.67;100499.22;5032839;28;19965;-64
2020/12/03 04:19:48;;;;;;;;;;;11.90;99.90;;;11.34;79.91;100501.53;5032734;28;20445;-64
2020/12/03 04:22:16;;;;;;;;;;;11.80;99.90;;;11.26;80.21;100507.66;5032005;28;20335;-64
2020/12/03 04:24:43;;;;;;;;;;;11.70;99.90;;;11.23;80.61;100513.69;5032370;28;19983;-64
2020/12/03 04:27:10;;;;;;;;;;;11.70;99.90;;;11.19;80.75;100499.13;5032670;28;19947;-64
2020/12/03 04:29:37;;;;;;;;;;;11.60;99.90;;;11.13;80.90;100508.44;5032663;28;19925;-64
2020/12/03 04:32:04;;;;;;;;;;;11.60;99.90;;;11.05;81.40;100509.16;5031514;28;20460;-64
2020/12/03 04:34:32;;;;;;;;;;;11.50;99.90;;;10.96;81.80;100514.47;5032274;28;20408;-64
2020/12/03 04:36:59;;;;;;;;;;;11.40;99.90;;;10.88;82.16;100501.66;5032581;28;19987;-64
2020/12/03 04:39:27;;;;;;;;;;;11.30;99.90;;;10.79;82.82;100503.44;5032609;28;19979;-63
2020/12/03 04:41:54;;;;;;;;;;;11.30;99.90;;;10.77;82.91;100495.63;5031445;28;19980;-63
2020/12/03 04:44:26;;;;;;;;;;;11.20;99.90;;;10.75;82.76;100502.44;5031760;28;20024;-64
2020/12/03 04:47:03;;;;;;;;;;;11.30;99.90;;;10.72;82.89;100501.13;5032541;28;20396;-64
2020/12/03 04:49:35;;;;;;;;;;;11.20;99.90;;;10.66;83.18;100498.81;5032479;28;19955;-64
2020/12/03 04:52:34;;;;;;;;;;;11.10;99.90;;;10.60;83.76;100513.50;5031432;28;19972;-64
2020/12/03 04:55:17;;;;;;;;;;;11.10;99.90;;;10.58;84.30;100511.09;5031251;28;20378;-63
2020/12/03 04:57:47;;;;;;;;;;;11.00;99.90;;;10.67;83.88;100516.66;5032217;28;19964;-64
2020/12/03 05:00:23;;;;;;;;;;;11.10;99.90;;;10.65;83.93;100502.59;5032005;28;20343;-63
2020/12/03 05:03:10;;;;;;;;;;;11.10;99.90;;;10.60;83.91;100506.22;5031803;28;19933;-64
2020/12/03 05:05:40;;;;;;;;;;;11.10;99.90;;;10.57;84.16;100506.00;5031992;28;19927;-64
2020/12/03 05:08:11;;;;;;;;;;;11.00;99.90;;;10.57;84.09;100506.00;5032336;28;20313;-64
2020/12/03 05:10:45;;;;;;;;;;;11.00;99.90;;;10.60;84.14;100503.50;5031738;28;19925;-63
2020/12/03 05:13:19;;;;;;;;;;;11.00;99.90;;;10.60;83.63;100511.63;5031843;28;20444;-65
2020/12/03 05:15:49;;;;;;;;;;;11.10;99.90;;;10.52;83.39;100504.16;5031789;28;19979;-64
2020/12/03 05:18:30;;;;;;;;;;;11.00;99.90;;;10.45;84.10;100509.19;5032281;28;20050;-64
2020/12/03 05:21:01;;;;;;;;;;;10.90;99.90;;;10.40;84.48;100509.25;5031409;28;20294;-64
2020/12/03 05:23:30;;;;;;;;;;;10.90;99.90;;;10.31;85.13;100503.72;5031600;28;19926;-64
2020/12/03 05:25:59;;;;;;;;;;;10.80;99.90;;;10.26;85.33;100505.69;5031992;28;19925;-64
2020/12/03 05:28:33;;;;;;;;;;;10.70;99.90;;;10.18;85.93;100498.28;5031995;28;19925;-64
2020/12/03 05:31:13;;;;;;;;;;;10.60;99.90;;;10.11;86.54;100497.81;5031186;28;20273;-64
2020/12/03 05:33:40;;;;;;;;;;;10.60;99.90;;;10.13;86.63;100503.72;5031631;28;20345;-64
2020/12/03 05:36:22;;;;;;;;;;;10.60;99.90;;;10.15;86.27;100506.97;5028835;28;19979;-64
2020/12/03 05:38:50;;;;;;;;;;;10.60;99.90;;;10.17;86.34;100505.56;5012409;28;19952;-65
2020/12/03 05:41:19;;;;;;;;;;;10.60;99.90;;;10.13;86.49;100507.25;5011325;28;19921;-64
2020/12/03 05:43:46;;;;;;;;;;;10.60;99.90;;;10.14;86.32;100506.16;5011701;28;20358;-64
2020/12/03 05:46:16;;;;;;;;;;;10.60;99.90;;;10.21;86.27;100509.28;5012180;28;20089;-64
2020/12/03 05:48:55;;;;;;;;;;;10.60;99.90;;;10.19;86.30;100505.25;5012282;28;19925;-63
2020/12/03 05:51:26;;;;;;;;;;;10.60;99.90;;;10.21;86.13;100508.50;5011016;28;20026;-64
2020/12/03 05:53:55;;;;;;;;;;;10.60;99.90;;;10.28;85.87;100514.31;5011647;28;19972;-64
2020/12/03 05:56:24;;;;;;;;;;;10.70;99.90;;;10.21;86.26;100516.59;5012040;28;19933;-64
2020/12/03 05:58:52;;;;;;;;;;;10.70;99.90;;;10.22;86.14;100515.47;5012046;28;20056;-64
2020/12/03 06:01:21;;;;;;;;;;;10.70;99.90;;;10.16;86.47;100513.97;5011059;28;19922;-64
2020/12/03 06:03:59;;;;;;;;;;;10.60;99.90;;;10.07;86.66;100523.78;5011306;28;20225;-64
2020/12/03 06:07:04;;;;;;;;;;;10.50;99.90;;;9.98;87.91;100525.56;5014938;28;20055;-64
2020/12/03 06:09:45;;;;;;;;;;;10.40;99.90;;;10.01;87.64;100524.97;5015489;28;20007;-63
2020/12/03 06:12:27;;;;;;;;;;;10.50;99.90;;;9.98;87.54;100529.06;5014658;28;19998;-66
2020/12/03 06:15:04;;;;;;;;;;;10.50;99.90;;;9.95;87.33;100531.53;5015369;28;20359;-65
2020/12/03 06:17:46;;;;;;;;;;;10.40;99.90;;;9.98;87.72;100530.94;5015327;28;19976;-65
2020/12/03 06:20:40;;;;;;;;;;;10.40;99.90;;;9.99;87.59;100535.28;5014632;28;19925;-66
2020/12/03 06:23:24;;;;;;;;;;;10.40;99.90;;;9.96;87.32;100539.38;5012603;28;19976;-66
2020/12/03 06:25:56;;;;;;;;;;;10.40;99.90;;;9.94;87.89;100546.16;5014994;28;20294;-65
2020/12/03 06:28:58;;;;;;;;;;;10.40;99.90;;;9.91;87.98;100557.53;5015164;28;20371;-64
2020/12/03 06:31:29;;;;;;;;;;;10.40;99.90;;;9.87;87.82;100547.31;5013450;28;19991;-64
2020/12/03 06:33:58;;;;;;;;;;;;;;;9.86;87.99;100553.81;5014610;28;19969;-64
2020/12/03 06:36:40;;;;;;;;;;;10.30;99.90;;;9.78;88.24;100554.47;5014985;28;19983;-64
2020/12/03 06:39:22;;;;;;;;;;;10.30;99.90;;;9.66;88.69;100562.19;5014931;28;20032;-64
2020/12/03 06:41:53;;;;;;;;;;;10.20;99.90;;;9.60;89.08;100555.25;5013671;28;19929;-64
2020/12/03 06:44:24;;;;;;;;;;;10.10;99.90;;;9.57;89.68;100557.72;5014607;28;19961;-63
2020/12/03 06:47:32;;;;;;;;;;;10.00;99.90;;;9.54;89.95;100548.31;5014863;28;20294;-63
2020/12/03 06:50:20;;;;;;;;;;;10.00;99.90;;;9.56;89.77;100553.41;4992399;28;20198;-65
2020/12/03 06:53:32;;;;;;;;;;;10.00;99.90;;;9.43;89.95;100551.41;5013974;28;20363;-63
2020/12/03 06:56:48;;;;;;;;;;;10.00;99.90;;;9.34;90.36;100552.03;5014337;28;20383;-63
2020/12/03 06:59:35;;;;;;;;;;;9.90;99.90;;;9.32;90.40;100540.75;5014832;28;19926;-63
2020/12/03 07:02:35;;;;;;;;;;;9.80;99.90;;;9.28;90.57;100533.50;5013745;28;20466;-63
2020/12/03 07:05:40;;;;;;;;;;;9.80;99.90;;;9.27;91.27;100535.38;4984125;28;19925;-63
2020/12/03 07:08:34;;;;;;;;;;;9.80;99.90;;;9.27;91.62;100540.00;5005177;28;19925;-64
2020/12/03 07:11:24;;;;;;;;;;;9.80;99.90;;;9.29;91.76;100554.81;5013462;28;20444;-64
2020/12/03 07:14:39;;;;;;;;;;;9.80;99.90;;;9.29;91.72;100546.72;5013878;28;20016;-64
2020/12/03 07:17:43;;;;;;;;;;;9.80;99.90;;;9.30;91.91;100555.63;5013520;28;19926;-64
2020/12/03 07:20:56;;;;;;;;;;;9.80;99.90;;;9.29;91.64;100560.22;5013281;28;20036;-64
2020/12/03 07:23:34;;;;;;;;;;;9.80;99.90;;;9.30;91.86;100561.00;5013229;28;20036;-63
2020/12/03 07:26:03;;;;;;;;;;;9.80;99.90;;;9.27;91.98;100559.66;5033775;28;20382;-63
2020/12/03 07:28:35;;;;;;;;;;;9.80;99.90;;;9.26;91.96;100557.28;5033672;28;20024;-63
2020/12/03 07:31:06;;;;;;;;;;;9.80;99.90;;;9.20;91.56;100563.81;5033124;28;19925;-63
2020/12/03 07:33:39;;;;;;;;;;;9.70;99.90;;;9.17;92.02;100559.81;5032791;28;19929;-63
2020/12/03 07:36:38;;;;;;;;;;;9.70;99.90;;;9.16;92.58;100565.47;5033391;28;19972;-64
2020/12/03 07:39:12;;;;;;;;;;;9.70;99.90;;;9.13;92.16;100569.53;5028421;28;19925;-64
2020/12/03 07:41:47;;;;;;;;;;;9.60;99.90;;;9.14;92.16;100573.88;5032521;28;19971;-64
2020/12/03 07:44:24;;;;;;;;;;;9.60;99.90;;;9.14;92.41;100586.53;5032884;28;19925;-64
2020/12/03 07:46:53;;;;;;;;;;;9.60;99.90;;;9.13;92.70;100593.00;5033436;28;19972;-64
2020/12/03 07:49:45;;;;;;;;;;;9.60;99.90;;;9.13;92.12;100591.13;5033224;28;19957;-64
2020/12/03 07:52:24;;;;;;;;;;;9.60;99.90;;;9.07;92.21;100596.84;5022398;28;19925;-64
2020/12/03 07:54:52;;;;;;;;;;;9.60;99.90;;;9.65;91.07;100600.25;5033098;28;19929;-64
2020/12/03 07:57:47;;;;;;;;;;;9.70;99.90;;;11.05;84.34;100609.28;5033272;28;19979;-64
2020/12/03 08:00:56;;;;;;;;;;;10.60;99.90;;;11.93;78.92;100598.91;4997581;28;20374;-64
2020/12/03 08:03:49;;;;;;;;;;;10.70;99.90;;;11.50;79.65;100606.53;5024927;28;19925;-64
2020/12/03 08:06:25;;;;;;;;;;;11.10;99.90;;;10.92;82.59;100613.56;5018828;28;19925;-63
2020/12/03 08:09:09;;;;;;;;;;;11.10;99.90;;;10.44;84.94;100610.28;5030302;28;19929;-64
2020/12/03 08:11:42;;;;;;;;;;;10.70;99.90;;;10.16;87.23;100613.94;5023649;28;19936;-64
2020/12/03 08:14:38;;;;;;;;;;;10.60;99.90;;;10.16;87.88;100608.53;5032761;28;19925;-64
2020/12/03 08:17:23;;;;;;;;;;;10.60;99.90;;;10.28;87.89;100617.81;5018261;28;19926;-64
2020/12/03 08:20:12;;;;;;;;;;;10.70;99.90;;;10.51;86.94;100621.53;5012753;28;19926;-64
2020/12/03 08:22:43;;;;;;;;;;;10.80;99.90;;;10.70;85.56;100608.78;5012583;28;19929;-64
2020/12/03 08:25:12;;;;;;;;;;;11.00;99.90;;;10.88;84.76;100617.97;5012875;28;19925;-64
2020/12/03 08:27:41;;;;;;;;;;;11.10;99.90;;;11.00;84.78;100625.59;5012760;28;19980;-64
2020/12/03 08:30:37;;;;;;;;;;;11.30;99.90;;;11.14;84.19;100619.13;5012239;28;19926;-63
2020/12/03 08:33:11;;;;;;;;;;;11.40;99.90;;;11.30;83.22;100623.16;5012200;28;19933;-64
2020/12/03 08:35:39;;;;;;;;;;;11.50;99.90;;;11.34;83.40;100623.34;5012705;28;19926;-64
2020/12/03 08:38:06;;;;;;;;;;;11.60;99.90;;;11.34;83.23;100620.63;5012927;28;20345;-64
2020/12/03 08:40:35;;;;;;;;;;;11.70;99.90;;;11.47;82.75;100626.09;5011888;28;19929;-64
2020/12/03 08:43:07;;;;;;;;;;;11.70;99.90;;;11.61;82.12;100630.72;5012070;28;20365;-64
2020/12/03 08:45:42;;;;;;;;;;;11.90;99.90;;;11.72;82.52;100632.94;5012655;28;19929;-64
2020/12/03 08:48:13;;;;;;;;;;;12.00;99.90;;;11.74;81.71;100635.34;5012938;28;19933;-64
2020/12/03 08:50:41;;;;;;;;;;;12.10;99.90;;;11.87;81.35;100635.34;5011779;28;19932;-64
2020/12/03 08:53:10;;;;;;;;;;;12.20;99.90;;;12.03;80.94;100642.06;5012029;28;19925;-64
2020/12/03 08:55:41;;;;;;;;;;;12.30;99.90;;;12.18;80.27;100638.22;5012432;28;19980;-64
2020/12/03 08:58:10;;;;;;;;;;;12.40;99.90;;;12.33;79.58;100639.78;5012676;28;19933;-64
2020/12/03 09:00:40;;;;;;;;;;;;;;;12.44;79.09;100646.56;5011648;28;19925;-65
2020/12/03 09:03:09;;;;;;;;;;;12.70;99.90;;;12.46;78.84;100644.38;5011900;28;19925;-64
2020/12/03 09:05:37;;;;;;;;;;;12.80;99.90;;;12.59;79.04;100647.00;5012306;28;19968;-64
2020/12/03 09:08:04;;;;;;;;;;;12.90;99.90;;;12.76;78.73;100648.25;5012209;28;19976;-63
2020/12/03 09:10:33;;;;;;;;;;;13.00;99.90;;;12.85;77.60;100654.56;5023673;28;19965;-63
2020/12/03 09:13:00;;;;;;;;;;;13.10;99.90;;;12.76;77.46;100662.63;5031735;28;19929;-64
2020/12/03 09:15:30;;;;;;;;;;;13.10;99.90;;;12.80;77.27;100670.94;5032085;28;19988;-64
2020/12/03 09:17:59;;;;;;;;;;;13.20;99.90;;;12.83;77.60;100671.13;5032318;28;20008;-64
2020/12/03 09:20:27;;;;;;;;;;;13.20;99.90;;;12.89;77.11;100679.94;5031346;28;19925;-64
2020/12/03 09:22:55;;;;;;;;;;;13.30;99.90;;;13.03;77.66;100680.72;5031414;28;19996;-65
2020/12/03 09:25:22;;;;;;;;;;;13.40;99.90;;;13.29;76.28;100676.25;5031635;28;20371;-65
2020/12/03 09:27:50;;;;;;;;;;;13.70;99.90;;;13.53;75.22;100682.13;5032265;28;19972;-64
2020/12/03 09:30:19;;;;;;;;;;;13.80;99.90;;;13.52;74.08;100679.75;5031208;28;20387;-64
2020/12/03 09:32:50;;;;;;;;;;;13.90;99.90;;;13.72;74.67;100684.63;5031329;28;19929;-65
2020/12/03 09:35:18;;;;;;;;;;;14.00;99.90;;;13.84;73.45;100673.97;5031723;28;19968;-64
2020/12/03 09:37:45;;;;;;;;;;;14.20;99.90;;;13.96;72.27;100676.88;5031951;28;19929;-64
2020/12/03 09:40:14;;;;;;;;;;;14.30;99.90;;;14.18;74.24;100674.06;5032450;28;19929;-65
2020/12/03 09:42:45;;;;;;;;;;;14.50;99.90;;;14.39;72.75;100670.75;5035289;28;20349;-64
2020/12/03 09:45:20;;;;;;;;;;;14.60;99.90;;;14.46;70.95;100657.47;5034903;28;20374;-64
2020/12/03 09:47:47;;;;;;;;;;;14.70;99.90;;;14.56;69.94;100657.19;5035955;28;20323;-64
2020/12/03 09:50:15;;;;;;;;;;;14.80;99.90;;;14.60;69.79;100650.75;5035163;28;19929;-65
2020/12/03 09:52:44;;;;;;;;;;;14.90;99.90;;;14.68;71.19;100649.19;5035116;28;20421;-65
2020/12/03 09:55:13;;;;;;;;;;;14.90;99.90;;;14.77;70.44;100652.69;5035346;28;19928;-64
2020/12/03 09:57:40;;;;;;;;;;;14.90;99.90;;;14.85;70.35;100653.78;5035404;28;20023;-64
2020/12/03 10:00:09;;;;;;;;;;;15.10;99.90;;;14.92;69.21;100660.38;5034877;28;19925;-64
2020/12/03 10:03:35;;;;;;;;;;;15.10;99.90;;;15.02;67.93;100648.31;5033433;28;19998;-64
2020/12/03 10:06:09;;;;;;;;;;;15.20;99.90;;;15.10;66.16;100651.03;5034023;28;20011;-64
2020/12/03 10:08:57;;;;;;;;;;;15.30;99.90;;;15.18;65.91;100658.38;5035461;28;20070;-64
2020/12/03 10:11:57;;;;;;;;;;;15.40;99.90;;;15.24;65.77;100645.38;5032304;28;19921;-64
2020/12/03 10:14:43;;;;;;;;;;;15.40;99.90;;;15.31;65.91;100642.97;5010942;28;20404;-65
2020/12/03 10:17:15;;;;;;;;;;;15.50;99.90;;;15.39;63.29;100638.59;5035464;28;20031;-64
2020/12/03 10:19:44;;;;;;;;;;;15.60;99.90;;;15.39;62.57;100635.88;5035032;28;19929;-64
2020/12/03 10:22:16;;;;;;;;;;;15.60;99.90;;;15.62;66.12;100637.28;5034333;28;19925;-64
2020/12/03 10:24:45;;;;;;;;;;;;;;;15.73;64.24;100636.56;5035022;28;19979;-64
2020/12/03 10:27:17;;;;;;;;;;;15.90;99.90;;;15.77;63.39;100632.06;5035138;28;20384;-64
2020/12/03 10:29:51;;;;;;;;;;;16.00;99.90;;;15.64;61.49;100621.38;5034842;28;19960;-64
2020/12/03 10:32:19;;;;;;;;;;;;;;;15.60;61.70;100621.22;5033989;28;20425;-64
2020/12/03 10:34:47;;;;;;;;;;;15.80;99.90;;;15.78;63.15;100613.75;5034591;28;19929;-64
2020/12/03 10:37:27;;;;;;;;;;;16.00;99.90;;;15.92;61.56;100610.81;5035112;28;19925;-64
2020/12/03 10:39:58;;;;;;;;;;;16.20;99.90;;;15.99;63.39;100611.09;5034493;28;19929;-64
2020/12/03 10:42:26;;;;;;;;;;;;;;;16.00;61.83;100604.50;5034153;28;19980;-64
2020/12/03 10:45:04;;;;;;;;;;;16.20;99.90;;;15.99;62.16;100606.41;5034577;28;19929;-65
2020/12/03 10:47:38;;;;;;;;;;;16.30;99.90;;;16.08;60.56;100607.16;5034696;28;19925;-64
2020/12/03 10:50:06;;;;;;;;;;;16.40;99.90;;;16.15;60.38;100612.91;5034109;28;19925;-64
2020/12/03 10:52:33;;;;;;;;;;;16.40;99.90;;;16.24;61.97;100613.63;5032672;28;19995;-64
2020/12/03 10:55:01;;;;;;;;;;;16.60;99.90;;;16.21;60.56;100614.31;5034167;28;20295;-64
2020/12/03 10:57:32;;;;;;;;;;;16.50;99.90;;;16.21;60.63;100621.69;5034440;28;20386;-64
2020/12/03 11:00:02;;;;;;;;;;;16.50;99.90;;;16.25;61.95;100634.34;5033842;28;19933;-64
2020/12/03 11:02:37;;;;;;;;;;;16.50;99.90;;;16.32;60.63;100625.63;5033768;28;20437;-64
2020/12/03 11:05:07;;;;;;;;;;;16.60;99.90;;;16.37;60.92;100619.97;5034079;28;19933;-64
2020/12/03 11:07:34;;;;;;;;;;;16.60;99.90;;;16.34;61.84;100615.16;5034348;28;19925;-64
2020/12/03 11:10:02;;;;;;;;;;;16.60;99.90;;;16.32;62.35;100615.50;5033546;28;19932;-64
2020/12/03 11:12:30;;;;;;;;;;;16.60;99.90;;;16.34;61.86;100613.25;5033580;28;19979;-64
2020/12/03 11:15:02;;;;;;;;;;;16.60;99.90;;;16.45;63.22;100583.59;5033939;28;19925;-65
2020/12/03 11:17:48;;;;;;;;;;;16.70;99.90;;;16.52;63.56;100583.88;5034267;28;19925;-66
2020/12/03 11:20:16;;;;;;;;;;;16.80;99.90;;;16.48;63.32;100584.88;5033492;28;19932;-65
2020/12/03 11:23:07;;;;;;;;;;;16.80;99.90;;;16.54;62.93;100578.91;5033370;28;20011;-66
2020/12/03 11:25:34;;;;;;;;;;;16.90;99.90;;;16.57;60.99;100578.22;5031037;28;19925;-66
2020/12/03 11:28:20;;;;;;;;;;;17.00;99.90;;;16.54;61.79;100572.59;5033726;28;19951;-64
2020/12/03 11:30:57;;;;;;;;;;;16.80;99.90;;;16.60;60.19;100574.03;5033145;28;19925;-64
2020/12/03 11:33:25;;;;;;;;;;;16.90;99.90;;;16.58;61.12;100571.66;5033236;28;19968;-64
2020/12/03 11:36:02;;;;;;;;;;;16.90;99.90;;;16.70;61.23;100566.22;5033312;28;19936;-64
2020/12/03 11:38:31;;;;;;;;;;;17.00;99.90;;;16.69;62.15;100569.28;5033739;28;19979;-64